Aérodrome :
LOGIN :

S'inscrire | Disclaimer

   EN    FR    IT 

 










Légende :    VFR   VFR Marginal   IFR   IFR Intensif   IFR Très Intensif
Visi : 
Plafond : 
>= 8 km
>= 3000ft
5 à 8 km
1000 à 3000 ft
1500m à 5 km
500 à 1000 ft
800 à 1500m
200 à 500 ft
< 800m
< 200 ft
Symboles :   Orages  Brouillard  Fortes neiges  Fortes précipitations  Vent > 20 kt
SIGMETs :   Divers  Orages  Givrage  Turbulence  Onde Orograph.  Cendres Volcan.







- Altitude de l'aérodrome : 1411 ft
- Code IATA : SZG


LOWS - Salzburg

DERNIER METAR :
  • 232050Z 15010KT 9999 FEW050 BKN060 14/13 Q1018 NOSIG

METARs EXPIRÉS :
  • 232020Z 16007KT 9999 FEW060 BKN070 14/13 Q1018 NOSIG
  • 231950Z 17002KT 9999 -SHRA FEW044 FEW050CB BKN070 14/13 Q1018 NOSIG
  • 231920Z 08004KT 9999 -SHRA FEW048 FEW050CB BKN070 15/13 Q1018 RETS NOSIG
  • 231850Z 23004KT 160V330 9999 -TSRA FEW028 FEW050CB BKN060 15/13 Q1018 RERA BECMG NSW
  • 231820Z 28014KT 250V320 6000 TSRA FEW009 SCT030 BKN042 FEW050CB 16/13 Q1017 BECMG NSW

TAF TAF LOWS
Valide du 23 à 18h jusqu'au 24 à 18h UTC


231715Z 2318/2418 31006KT 9999 FEW070 BKN090 TX20/2416Z TN13/2405Z
TEMPO 2318/2408 SHRA SCT020 FEW030TCU BKN040
PROB40
TEMPO 2318/2321 31015G30KT 6000 TSRA SCT040CB BKN060
BECMG 2408/2410 SCT040
Pas de NOTAMs connus pour ce terrain.
1 SIGMET publié pour la FIR Wien (LOVV) :
 
Orages en lignes de grains avec grêle
LOVV SIGMET 1 VALID 231926/232100 LOWW
LOVV WIEN FIR SQL TSGR OBS AT 1926Z WI N4825 E01355 - N4825 E01435 - N4725 E01335 - N4725 E01255 - N4825 E01355 TOP FL390 MOV E NC=



MET'MAP, la Météo Aéronautique d'un coup d'oeil ! - Copyright ORBIFLY Décembre 2007 - Disclaimer

ORBIFLY MET'MAP TEAM :

Programmation & Développement : Alexandra Zaïnal
Conception & Développement : Baudouin d'Aumeries
Co-Programmation & Développement : Marc-Olivier Méhu
Soutien technique & logistique : Manuel Goepfert

Contact : metmap@orbifly.com




SOURCES & CREDITS :

   NOAA